FAOR Airport Information

Runway Information
Airport Frequencies
Airport Navaids
Airport Weather Information & NOTAM
ADDS - METARS form results

(1310 UTC 19 June 2019)
Data provider http://aviationweather.gov/metar/data/
 
METAR text: FAOR 191300Z 13005KT 050V170 CAVOK 18/M08 Q1032 NOSIG
Conditions at: FAOR (JOHANNESBURG/TAM, ZA) observed 1300 UTC 19 June 2019
Temperature: 18.0°C (64°F)
Dewpoint: -8.0°C (18°F) [RH = 16%]
Pressure (altimeter): 30.47 inches Hg (1032.0 mb)
Winds: from the SE (130 degrees) at 6 MPH (5 knots; 2.6 m/s)
Visibility: 6 or more miles (10+ km)
Ceiling: ceiling and visibility are OK
Clouds: unknown
Weather: no significant weather observed at this time

METAR text: FAOR 191230Z 11005KT 020V180 CAVOK 18/M07 Q1033 NOSIG
Conditions at: FAOR (JOHANNESBURG/TAM, ZA) observed 1230 UTC 19 June 2019
Temperature: 18.0°C (64°F)
Dewpoint: -7.0°C (19°F) [RH = 18%]
Pressure (altimeter): 30.50 inches Hg (1033.0 mb)
Winds: from the ESE (110 degrees) at 6 MPH (5 knots; 2.6 m/s)
Visibility: 6 or more miles (10+ km)
Ceiling: ceiling and visibility are OK
Clouds: unknown
Weather: no significant weather observed at this time

Forecast for: FAOR (JOHANNESBURG/TAM, ZA)
Text: TAF FAOR 191000Z 1912/2018 15006KT CAVOK TX20/2012Z TN04/2004Z
Forecast period: 1200 UTC 19 June 2019 to 1100 UTC 20 June 2019
Forecast type: FROM: standard forecast or significant change
Winds: from the SSE (150 degrees) at 7 MPH (6 knots; 3.1 m/s)
Visibility: 6 or more miles 10+ km)
Ceiling: unknown
Clouds: missing
Weather: no significant weather forecast for this period
Text: BECMG 2011/2013 03008KT
Forecast period: 1100 to 1800 UTC 20 June 2019
Forecast type: BECOMING: Conditions expected to become as follows by 1300 UTC 20 June 2019
Winds: from the NNE (30 degrees) at 9 MPH (8 knots; 4.1 m/s)
Visibility: 6 or more miles 10+ km)
Ceiling: unknown
Clouds: missing
Weather: no significant weather forecast for this period